Time;durP1;ratioP1;P1;durP2;ratioP2;P2;SDS_P1;SDS_P2;PMS_P1;PMS_P2;Temp;Humidity;BMP_temperature;BMP_pressure;BME280_temperature;BME280_humidity;BME280_pressure;Samples;Min_cycle;Max_cycle;Signal;HPM_P1;HPM_P2
2022/01/16 00:01:03;;;;;;;46.22;16.50;;;;;;;;;;5006704;28;20037;-86
2022/01/16 00:06:23;;;;;;;47.90;17.20;;;;;;;;;;4994100;28;20049;-85
2022/01/16 00:08:49;;;;;;;57.70;18.58;;;;;;;;;;4994090;28;20026;-86
2022/01/16 00:11:15;;;;;;;57.55;18.30;;;;;;;;;;4985595;28;20513;-85
2022/01/16 00:13:41;;;;;;;44.83;17.75;;;;;;;;;;4993964;28;20488;-85
2022/01/16 00:16:31;;;;;;;46.42;16.23;;;;;;;;;;4982557;28;20027;-85
2022/01/16 00:19:09;;;;;;;52.72;17.98;;;;;;;;;;4997540;28;20058;-85
2022/01/16 00:21:41;;;;;;;41.70;16.23;;;;;;;;;;5002534;28;20030;-86
2022/01/16 00:24:25;;;;;;;43.75;16.67;;;;;;;;;;5004588;28;20041;-87
2022/01/16 00:26:55;;;;;;;46.75;16.85;;;;;;;;;;5001734;28;20042;-84
2022/01/16 00:29:31;;;;;;;49.78;17.08;;;;;;;;;;5001852;28;20034;-84
2022/01/16 00:32:13;;;;;;;48.10;15.77;;;;;;;;;;5000965;28;20117;-84
2022/01/16 00:34:39;;;;;;;53.78;17.10;;;;;;;;;;5000610;28;20038;-86
2022/01/16 00:45:55;;;;;;;49.75;16.80;;;;;;;;;;4998393;28;20045;-85
2022/01/16 00:48:21;;;;;;;48.42;17.75;;;;;;;;;;5003813;28;20458;-84
2022/01/16 00:50:47;;;;;;;55.17;18.98;;;;;;;;;;4999396;28;20520;-84
2022/01/16 00:53:13;;;;;;;49.83;18.60;;;;;;;;;;5004586;28;20093;-84
2022/01/16 00:56:06;;;;;;;55.38;18.15;;;;;;;;;;5000187;28;20066;-85
2022/01/16 00:58:33;;;;;;;52.13;17.60;;;;;;;;;;4996930;28;20081;-85
2022/01/16 01:01:21;;;;;;;50.28;17.48;;;;;;;;;;5002294;28;20081;-86
2022/01/16 01:03:53;;;;;;;49.42;18.08;;;;;;;;;;5001281;28;20450;-87
2022/01/16 01:06:19;;;;;;;54.67;19.45;;;;;;;;;;5001939;28;20042;-85
2022/01/16 01:08:46;;;;;;;51.22;18.88;;;;;;;;;;5025669;23;20069;-84
2022/01/16 01:11:19;;;;;;;57.60;19.17;;;;;;;;;;5003510;28;20418;-85
2022/01/16 01:14:08;;;;;;;61.35;21.00;;;;;;;;;;5001347;28;20031;-84
2022/01/16 01:16:49;;;;;;;53.50;17.75;;;;;;;;;;4998902;28;20528;-85
2022/01/16 01:19:15;;;;;;;;;;;;;;;;;;5001513;28;20030;-85
2022/01/16 01:21:41;;;;;;;48.38;18.17;;;;;;;;;;4992693;28;19956;-85
2022/01/16 01:24:07;;;;;;;58.70;20.15;;;;;;;;;;4991306;28;20026;-84
2022/01/16 01:26:41;;;;;;;62.42;21.70;;;;;;;;;;4992364;28;20026;-85
2022/01/16 01:29:07;;;;;;;59.58;20.92;;;;;;;;;;4992535;28;20157;-84
2022/01/16 01:31:33;;;;;;;60.10;21.48;;;;;;;;;;4993480;28;20027;-85
2022/01/16 01:33:59;;;;;;;53.53;21.30;;;;;;;;;;4992867;28;20106;-84
2022/01/16 01:36:25;;;;;;;58.55;21.35;;;;;;;;;;4994597;28;20084;-84
2022/01/16 01:38:51;;;;;;;54.72;21.08;;;;;;;;;;4993671;28;20501;-84
2022/01/16 01:41:19;;;;;;;64.75;20.50;;;;;;;;;;4994692;28;20030;-84
2022/01/16 01:51:59;;;;;;;58.25;19.80;;;;;;;;;;5016025;28;20098;-85
2022/01/16 01:54:26;;;;;;;57.45;22.58;;;;;;;;;;5015582;28;20046;-85
2022/01/16 01:56:52;;;;;;;55.92;21.08;;;;;;;;;;5009385;28;20030;-85
2022/01/16 01:59:19;;;;;;;61.30;22.02;;;;;;;;;;4997618;28;20109;-85
2022/01/16 02:01:45;;;;;;;53.13;20.73;;;;;;;;;;4999631;28;20026;-85
2022/01/16 02:04:11;;;;;;;63.05;23.55;;;;;;;;;;4990658;28;20062;-84
2022/01/16 02:06:37;;;;;;;62.20;22.70;;;;;;;;;;4991251;28;20026;-84
2022/01/16 02:09:06;;;;;;;60.50;22.98;;;;;;;;;;4953838;28;1104827;-85
2022/01/16 02:11:32;;;;;;;54.83;21.85;;;;;;;;;;4996402;28;20120;-84
2022/01/16 02:14:10;;;;;;;57.65;22.20;;;;;;;;;;4994229;28;20512;-84
2022/01/16 02:28:04;;;;;;;71.40;24.42;;;;;;;;;;4994147;28;20061;-84
2022/01/16 02:30:58;;;;;;;66.18;25.13;;;;;;;;;;4996444;28;20046;-84
2022/01/16 02:36:04;;;;;;;57.80;22.80;;;;;;;;;;4994565;28;20112;-84
2022/01/16 02:38:30;;;;;;;59.40;24.75;;;;;;;;;;5013801;28;20027;-85
2022/01/16 02:41:00;;;;;;;66.03;24.23;;;;;;;;;;5013973;28;20038;-85
2022/01/16 02:43:33;;;;;;;60.50;23.23;;;;;;;;;;5001354;28;20085;-85
2022/01/16 02:48:55;;;;;;;63.53;24.58;;;;;;;;;;4992035;28;20018;-84
2022/01/16 02:51:26;;;;;;;69.43;25.13;;;;;;;;;;4995939;28;20030;-84
2022/01/16 02:53:52;;;;;;;62.67;24.55;;;;;;;;;;4995590;28;20066;-84
2022/01/16 02:56:19;;;;;;;64.78;27.02;;;;;;;;;;4996192;28;20421;-85
2022/01/16 02:58:45;;;;;;;70.65;26.17;;;;;;;;;;4995504;28;20065;-84
2022/01/16 03:01:12;;;;;;;72.53;27.55;;;;;;;;;;4995595;28;20026;-85
2022/01/16 03:03:41;;;;;;;79.28;28.63;;;;;;;;;;4996454;28;20026;-85
2022/01/16 03:06:07;;;;;;;80.32;30.23;;;;;;;;;;4996514;28;20042;-84
2022/01/16 03:08:33;;;;;;;85.70;30.65;;;;;;;;;;4994247;28;20026;-85
2022/01/16 03:13:47;;;;;;;84.45;30.42;;;;;;;;;;5009958;28;20076;-84
2022/01/16 03:16:15;;;;;;;86.95;31.85;;;;;;;;;;5015658;28;20015;-85
2022/01/16 03:24:10;;;;;;;90.43;32.47;;;;;;;;;;4996644;28;20041;-85
2022/01/16 03:26:36;;;;;;;82.32;28.25;;;;;;;;;;4994818;28;20030;-84
2022/01/16 03:29:02;;;;;;;85.75;32.08;;;;;;;;;;4996349;28;20033;-85
2022/01/16 03:31:28;;;;;;;94.07;32.75;;;;;;;;;;4989924;28;20018;-85
2022/01/16 03:33:54;;;;;;;79.43;30.95;;;;;;;;;;4998608;28;20379;-85
2022/01/16 03:36:21;;;;;;;85.35;30.30;;;;;;;;;;4995786;28;20026;-84
2022/01/16 03:38:47;;;;;;;85.60;29.35;;;;;;;;;;4997641;28;20411;-84
2022/01/16 03:41:13;;;;;;;95.15;31.42;;;;;;;;;;4995564;28;20022;-84
2022/01/16 03:43:39;;;;;;;81.40;28.67;;;;;;;;;;4997400;28;20109;-84
2022/01/16 03:46:05;;;;;;;76.75;29.27;;;;;;;;;;4995809;28;20086;-84
2022/01/16 03:48:31;;;;;;;76.78;29.98;;;;;;;;;;4996892;28;20097;-85
2022/01/16 03:50:57;;;;;;;79.82;30.63;;;;;;;;;;4995813;28;20511;-85
2022/01/16 03:53:23;;;;;;;86.85;29.48;;;;;;;;;;4994793;28;20108;-84
2022/01/16 03:55:49;;;;;;;80.15;30.30;;;;;;;;;;4994904;28;20038;-84
2022/01/16 03:58:15;;;;;;;81.53;30.33;;;;;;;;;;4994931;28;20014;-84
2022/01/16 04:00:42;;;;;;;77.90;27.85;;;;;;;;;;5003841;28;20082;-84
2022/01/16 04:03:08;;;;;;;74.03;28.65;;;;;;;;;;5000381;28;20053;-85
2022/01/16 04:05:34;;;;;;;76.28;29.83;;;;;;;;;;4997714;28;20038;-84
2022/01/16 04:08:02;;;;;;;79.05;29.42;;;;;;;;;;4997188;28;20031;-85
2022/01/16 04:10:28;;;;;;;81.10;32.35;;;;;;;;;;4993700;28;20057;-85
2022/01/16 04:12:54;;;;;;;70.35;28.25;;;;;;;;;;4995751;28;20056;-84
2022/01/16 04:17:46;;;;;;;81.70;28.27;;;;;;;;;;4995235;28;20023;-85
2022/01/16 04:20:16;;;;;;;77.15;28.30;;;;;;;;;;4994681;28;20034;-84
2022/01/16 04:22:45;;;;;;;70.93;27.30;;;;;;;;;;4993909;28;20117;-84
2022/01/16 04:25:11;;;;;;;68.53;26.08;;;;;;;;;;4996871;28;20030;-84
2022/01/16 04:27:37;;;;;;;69.70;27.67;;;;;;;;;;4994580;28;20042;-84
2022/01/16 04:30:04;;;;;;;74.10;27.83;;;;;;;;;;4999781;28;20034;-83
2022/01/16 04:32:30;;;;;;;68.32;27.90;;;;;;;;;;4997575;28;20030;-85
2022/01/16 04:34:56;;;;;;;74.50;26.95;;;;;;;;;;4998098;28;20399;-85
2022/01/16 04:37:22;;;;;;;79.53;26.95;;;;;;;;;;4994568;28;20033;-84
2022/01/16 04:39:51;;;;;;;67.20;24.73;;;;;;;;;;4996005;28;20030;-84
2022/01/16 04:45:02;;;;;;;63.67;25.08;;;;;;;;;;4993138;28;20066;-84
2022/01/16 04:47:29;;;;;;;64.25;23.85;;;;;;;;;;4994201;28;20513;-85
2022/01/16 04:49:55;;;;;;;63.88;24.77;;;;;;;;;;4995415;28;20029;-84
2022/01/16 04:52:21;;;;;;;68.13;25.17;;;;;;;;;;4993825;28;20022;-85
2022/01/16 04:54:47;;;;;;;71.05;26.05;;;;;;;;;;4996718;28;20030;-84
2022/01/16 04:57:13;;;;;;;74.15;26.45;;;;;;;;;;4992354;28;20030;-84
2022/01/16 04:59:40;;;;;;;70.35;25.83;;;;;;;;;;4991793;28;20054;-84
2022/01/16 05:02:06;;;;;;;61.75;24.38;;;;;;;;;;4996639;28;20169;-84
2022/01/16 05:04:32;;;;;;;64.93;24.73;;;;;;;;;;4994616;28;20030;-84
2022/01/16 05:06:58;;;;;;;69.43;26.52;;;;;;;;;;4993546;28;20419;-84
2022/01/16 05:09:24;;;;;;;71.65;26.90;;;;;;;;;;4994465;28;20034;-84
2022/01/16 05:11:55;;;;;;;64.25;25.30;;;;;;;;;;4995682;28;20368;-84
2022/01/16 05:17:06;;;;;;;70.88;26.23;;;;;;;;;;4996890;28;20065;-84
2022/01/16 05:19:32;;;;;;;84.60;27.70;;;;;;;;;;4993589;28;20022;-84
2022/01/16 05:21:58;;;;;;;70.10;27.63;;;;;;;;;;4995359;28;20125;-84
2022/01/16 05:24:30;;;;;;;82.28;26.27;;;;;;;;;;4995409;28;20110;-84
2022/01/16 05:26:56;;;;;;;81.40;27.77;;;;;;;;;;4996424;28;20215;-84
2022/01/16 05:29:22;;;;;;;71.80;25.85;;;;;;;;;;5000487;28;20266;-84
2022/01/16 05:31:48;;;;;;;85.50;27.17;;;;;;;;;;4998790;28;20030;-84
2022/01/16 05:34:18;;;;;;;89.68;28.58;;;;;;;;;;4993988;28;20093;-84
2022/01/16 05:36:46;;;;;;;70.88;26.15;;;;;;;;;;4996719;28;20106;-84
2022/01/16 05:39:12;;;;;;;84.10;28.58;;;;;;;;;;4994438;28;20022;-84
2022/01/16 05:41:38;;;;;;;78.18;30.38;;;;;;;;;;4995226;28;20030;-84
2022/01/16 05:44:04;;;;;;;82.20;28.98;;;;;;;;;;4996346;28;20113;-85
2022/01/16 05:46:30;;;;;;;108.40;32.33;;;;;;;;;;4999543;28;20032;-84
2022/01/16 05:48:56;;;;;;;83.45;29.48;;;;;;;;;;4998241;28;20343;-84
2022/01/16 05:51:22;;;;;;;84.95;30.35;;;;;;;;;;4999470;28;20022;-84
2022/01/16 05:53:51;;;;;;;109.20;32.13;;;;;;;;;;4997726;28;20029;-84
2022/01/16 05:56:17;;;;;;;98.32;31.33;;;;;;;;;;4998479;28;20018;-84
2022/01/16 05:58:45;;;;;;;132.10;30.67;;;;;;;;;;4997288;28;20045;-84
2022/01/16 06:01:11;;;;;;;98.30;32.17;;;;;;;;;;4999327;28;20023;-84
2022/01/16 06:03:37;;;;;;;97.20;31.48;;;;;;;;;;5008708;28;20430;-84
2022/01/16 06:06:04;;;;;;;114.72;32.45;;;;;;;;;;4993978;28;20050;-84
2022/01/16 06:08:30;;;;;;;88.53;31.05;;;;;;;;;;4996658;28;20026;-84
2022/01/16 06:10:56;;;;;;;93.35;30.88;;;;;;;;;;4995964;28;20557;-84
2022/01/16 06:13:22;;;;;;;122.88;33.60;;;;;;;;;;4996991;28;20042;-85
2022/01/16 06:15:48;;;;;;;87.35;32.03;;;;;;;;;;4995864;28;20463;-84
2022/01/16 06:18:16;;;;;;;98.57;32.30;;;;;;;;;;4994931;28;20415;-84
2022/01/16 06:20:42;;;;;;;95.68;31.80;;;;;;;;;;4997247;28;20053;-84
2022/01/16 06:23:09;;;;;;;105.68;31.65;;;;;;;;;;4996075;28;20046;-84
2022/01/16 06:25:35;;;;;;;96.78;35.38;;;;;;;;;;4996300;28;20030;-84
2022/01/16 06:28:01;;;;;;;99.32;31.95;;;;;;;;;;4996470;28;20482;-84
2022/01/16 06:30:27;;;;;;;99.20;30.35;;;;;;;;;;4997191;28;20030;-84
2022/01/16 06:32:53;;;;;;;94.88;32.35;;;;;;;;;;4999278;28;20094;-84
2022/01/16 06:35:19;;;;;;;102.28;32.22;;;;;;;;;;4995803;28;20026;-84
2022/01/16 06:37:45;;;;;;;100.90;32.22;;;;;;;;;;4996938;28;20026;-85
2022/01/16 06:40:12;;;;;;;96.13;30.05;;;;;;;;;;4998670;28;20026;-85
2022/01/16 06:42:39;;;;;;;97.53;32.17;;;;;;;;;;4997418;28;20061;-84
2022/01/16 06:45:06;;;;;;;97.55;32.53;;;;;;;;;;4997104;28;20022;-84
2022/01/16 06:47:32;;;;;;;98.05;32.35;;;;;;;;;;4996327;28;20022;-84
2022/01/16 06:49:58;;;;;;;94.60;30.40;;;;;;;;;;4995640;28;20142;-84
2022/01/16 06:52:24;;;;;;;90.50;31.55;;;;;;;;;;4995634;28;20027;-84
2022/01/16 06:54:50;;;;;;;89.55;31.15;;;;;;;;;;5004249;28;20041;-84
2022/01/16 06:57:16;;;;;;;94.18;31.45;;;;;;;;;;4994994;28;20018;-83
2022/01/16 06:59:45;;;;;;;95.10;31.80;;;;;;;;;;5000346;28;20045;-84
2022/01/16 07:02:11;;;;;;;110.45;34.60;;;;;;;;;;4995328;28;20433;-84
2022/01/16 07:04:37;;;;;;;103.78;34.15;;;;;;;;;;4994322;28;20034;-84
2022/01/16 07:07:03;;;;;;;100.22;31.00;;;;;;;;;;4996462;28;20437;-84
2022/01/16 07:09:29;;;;;;;107.22;34.05;;;;;;;;;;4996092;28;20041;-85
2022/01/16 07:11:58;;;;;;;96.88;31.70;;;;;;;;;;4996168;28;20022;-84
2022/01/16 07:14:24;;;;;;;96.28;32.42;;;;;;;;;;5002113;28;20031;-84
2022/01/16 07:16:50;;;;;;;93.80;31.83;;;;;;;;;;4997673;28;20037;-84
2022/01/16 07:19:16;;;;;;;100.78;32.00;;;;;;;;;;4997971;28;20108;-84
2022/01/16 07:21:42;;;;;;;112.70;35.72;;;;;;;;;;5000526;28;20117;-84
2022/01/16 07:24:15;;;;;;;119.78;36.33;;;;;;;;;;5015599;28;20533;-83
2022/01/16 07:26:41;;;;;;;108.57;34.58;;;;;;;;;;5015751;28;20034;-85
2022/01/16 07:29:07;;;;;;;103.68;37.00;;;;;;;;;;5000551;28;20030;-84
2022/01/16 07:31:33;;;;;;;119.50;35.03;;;;;;;;;;4999759;28;20034;-84
2022/01/16 07:33:59;;;;;;;117.40;36.17;;;;;;;;;;4999949;28;20037;-85
2022/01/16 07:36:25;;;;;;;118.07;38.08;;;;;;;;;;5000481;28;20034;-84
2022/01/16 07:38:51;;;;;;;119.93;38.60;;;;;;;;;;5000540;28;20028;-84
2022/01/16 07:41:17;;;;;;;124.65;38.28;;;;;;;;;;5001271;28;20078;-84
2022/01/16 07:43:43;;;;;;;131.77;39.00;;;;;;;;;;4998047;28;20030;-84
2022/01/16 07:46:09;;;;;;;132.20;39.63;;;;;;;;;;4996236;28;20076;-84
2022/01/16 07:48:35;;;;;;;137.50;44.58;;;;;;;;;;4997954;28;20030;-84
2022/01/16 07:51:01;;;;;;;133.60;42.47;;;;;;;;;;4999643;28;20422;-84
2022/01/16 07:53:27;;;;;;;132.43;41.22;;;;;;;;;;4997219;28;20034;-84
2022/01/16 07:55:53;;;;;;;138.35;43.35;;;;;;;;;;4996829;28;20031;-84
2022/01/16 07:58:19;;;;;;;140.75;40.95;;;;;;;;;;4998322;28;20042;-84
2022/01/16 08:00:45;;;;;;;132.25;41.90;;;;;;;;;;4996407;28;20035;-84
2022/01/16 08:03:11;;;;;;;129.02;44.08;;;;;;;;;;4997839;28;20085;-84
2022/01/16 08:05:37;;;;;;;129.60;43.78;;;;;;;;;;5002000;28;20113;-84
2022/01/16 08:08:03;;;;;;;172.57;45.08;;;;;;;;;;4998451;28;20045;-85
2022/01/16 08:10:30;;;;;;;131.75;44.10;;;;;;;;;;4996351;28;20034;-83
2022/01/16 08:12:58;;;;;;;136.10;41.47;;;;;;;;;;4993954;28;20062;-83
2022/01/16 08:15:24;;;;;;;141.15;42.80;;;;;;;;;;4994387;28;20101;-84
2022/01/16 08:17:50;;;;;;;142.73;43.30;;;;;;;;;;4993707;28;20069;-85
2022/01/16 08:20:16;;;;;;;136.52;43.05;;;;;;;;;;4994213;28;20057;-84
2022/01/16 08:22:43;;;;;;;165.32;44.38;;;;;;;;;;4993868;28;20022;-85
2022/01/16 08:25:09;;;;;;;143.82;41.95;;;;;;;;;;4993894;28;20109;-85
2022/01/16 08:27:35;;;;;;;141.13;42.63;;;;;;;;;;4993692;28;20030;-85
2022/01/16 08:30:01;;;;;;;143.23;41.75;;;;;;;;;;4994640;28;20023;-85
2022/01/16 08:32:27;;;;;;;142.80;44.35;;;;;;;;;;4997585;28;20026;-85
2022/01/16 08:34:54;;;;;;;149.75;41.45;;;;;;;;;;4997017;28;20046;-85
2022/01/16 08:37:20;;;;;;;137.10;38.75;;;;;;;;;;4995918;28;20099;-85
2022/01/16 08:39:46;;;;;;;130.93;39.40;;;;;;;;;;4997181;28;20037;-85
2022/01/16 08:42:12;;;;;;;133.63;38.95;;;;;;;;;;4995514;28;20054;-85
2022/01/16 08:44:38;;;;;;;143.48;40.03;;;;;;;;;;4996736;28;20026;-85
2022/01/16 08:47:05;;;;;;;126.85;38.33;;;;;;;;;;4994828;28;20022;-86
2022/01/16 08:49:31;;;;;;;138.63;42.58;;;;;;;;;;4995489;28;20026;-85
2022/01/16 08:51:58;;;;;;;143.82;40.60;;;;;;;;;;4996411;28;20090;-85
2022/01/16 08:54:24;;;;;;;130.80;39.03;;;;;;;;;;4998236;28;20022;-85
2022/01/16 08:56:50;;;;;;;138.93;42.55;;;;;;;;;;4998056;28;20022;-85
2022/01/16 08:59:16;;;;;;;136.73;41.47;;;;;;;;;;4995641;28;20116;-84
2022/01/16 09:01:42;;;;;;;140.95;41.45;;;;;;;;;;4996339;28;20034;-85
2022/01/16 09:04:08;;;;;;;156.95;39.75;;;;;;;;;;5001495;28;20036;-85
2022/01/16 09:06:34;;;;;;;136.68;36.97;;;;;;;;;;4996596;28;20030;-85
2022/01/16 09:09:00;;;;;;;132.73;37.75;;;;;;;;;;4995135;28;20069;-85
2022/01/16 09:11:26;;;;;;;128.70;36.95;;;;;;;;;;4997069;28;20018;-86
2022/01/16 09:13:53;;;;;;;128.15;36.40;;;;;;;;;;4997429;28;20050;-85
2022/01/16 09:16:20;;;;;;;126.55;36.15;;;;;;;;;;4995897;28;20552;-86
2022/01/16 09:19:18;;;;;;;;;;;;;;;;;;;;;
2022/01/16 09:24:52;;;;;;;122.20;34.70;;;;;;;;;;4997804;28;20133;-85
2022/01/16 09:27:18;;;;;;;133.45;37.15;;;;;;;;;;4996743;28;20049;-85
2022/01/16 09:30:01;;;;;;;136.82;36.55;;;;;;;;;;4997834;28;20027;-86
2022/01/16 09:32:29;;;;;;;113.70;34.17;;;;;;;;;;4997565;28;20410;-85
2022/01/16 09:38:22;;;;;;;118.57;34.05;;;;;;;;;;4997213;28;20049;-85
2022/01/16 09:47:50;;;;;;;;;;;;;;;;;;;;;
2022/01/16 09:53:35;;;;;;;135.80;36.63;;;;;;;;;;4899723;29;20572;-85
2022/01/16 09:59:28;;;;;;;115.43;36.63;;;;;;;;;;4844928;29;20089;-85
2022/01/16 10:01:59;;;;;;;111.97;33.95;;;;;;;;;;4874016;29;20057;-85
2022/01/16 10:04:36;;;;;;;105.07;33.22;;;;;;;;;;4883946;29;20041;-85
2022/01/16 10:10:50;;;;;;;124.88;36.75;;;;;;;;;;4909808;29;20135;-85
2022/01/16 10:13:37;;;;;;;119.40;35.65;;;;;;;;;;4917643;29;20067;-84
2022/01/16 10:16:24;;;;;;;104.72;31.77;;;;;;;;;;4933993;28;20090;-85
2022/01/16 10:19:13;;;;;;;119.57;36.67;;;;;;;;;;4977804;28;20031;-85
2022/01/16 10:21:55;;;;;;;103.07;31.88;;;;;;;;;;4976886;28;20033;-82
2022/01/16 10:24:30;;;;;;;110.95;33.60;;;;;;;;;;4977788;28;20053;-83
2022/01/16 10:27:24;;;;;;;110.88;33.95;;;;;;;;;;4978083;28;20030;-84
2022/01/16 10:30:18;;;;;;;124.25;34.92;;;;;;;;;;4968017;28;20081;-85
2022/01/16 10:36:13;;;;;;;;;;;;;;;;;;;;;
2022/01/16 10:38:43;;;;;;;111.82;31.63;;;;;;;;;;4977721;28;20577;-84
2022/01/16 10:41:14;;;;;;;125.20;36.72;;;;;;;;;;4977573;28;20069;-85
2022/01/16 10:44:18;;;;;;;138.05;36.42;;;;;;;;;;4977496;28;20035;-84
2022/01/16 10:46:55;;;;;;;127.28;34.33;;;;;;;;;;4975270;28;20106;-84
2022/01/16 10:55:49;;;;;;;121.53;35.00;;;;;;;;;;4972290;28;20077;-84
2022/01/16 10:58:41;;;;;;;127.20;35.67;;;;;;;;;;4990237;28;20026;-84
2022/01/16 11:01:23;;;;;;;125.22;35.13;;;;;;;;;;4996141;28;20098;-84
2022/01/16 11:03:58;;;;;;;117.20;33.03;;;;;;;;;;4997319;28;20209;-85
2022/01/16 11:06:27;;;;;;;112.60;33.70;;;;;;;;;;4985272;28;20019;-85
2022/01/16 11:08:56;;;;;;;124.55;36.08;;;;;;;;;;4996666;28;20042;-85
2022/01/16 11:11:23;;;;;;;129.93;37.85;;;;;;;;;;4997841;28;20050;-85
2022/01/16 11:13:50;;;;;;;111.18;32.00;;;;;;;;;;4998528;28;20050;-84
2022/01/16 11:16:16;;;;;;;131.15;33.33;;;;;;;;;;4996554;28;20033;-85
2022/01/16 11:18:48;;;;;;;129.77;35.65;;;;;;;;;;4995644;28;20022;-85
2022/01/16 11:21:20;;;;;;;116.20;34.30;;;;;;;;;;4997275;28;20038;-85
2022/01/16 11:26:13;;;;;;;149.00;34.88;;;;;;;;;;4995947;28;20390;-85
2022/01/16 11:28:39;;;;;;;127.05;34.05;;;;;;;;;;4995968;28;20019;-85
2022/01/16 11:31:07;;;;;;;119.95;33.80;;;;;;;;;;4996569;28;20045;-86
2022/01/16 11:33:34;;;;;;;132.23;34.20;;;;;;;;;;5012142;28;20011;-86
2022/01/16 11:36:13;;;;;;;;;;;;;;;;;;;;;
2022/01/16 11:39:18;;;;;;;128.65;35.17;;;;;;;;;;5003189;28;20225;-85
2022/01/16 11:42:27;;;;;;;118.70;36.42;;;;;;;;;;4998938;28;20034;-86
2022/01/16 11:45:07;;;;;;;124.57;33.45;;;;;;;;;;4996764;28;20034;-86
2022/01/16 11:47:33;;;;;;;131.93;34.22;;;;;;;;;;4995908;28;20035;-85
2022/01/16 11:50:06;;;;;;;126.68;33.92;;;;;;;;;;4998250;28;20026;-85
2022/01/16 11:52:38;;;;;;;133.70;34.58;;;;;;;;;;5001036;28;20049;-85
2022/01/16 11:55:08;;;;;;;168.13;35.80;;;;;;;;;;5000378;28;20029;-85
2022/01/16 11:57:35;;;;;;;148.52;36.75;;;;;;;;;;5000975;28;20038;-85
2022/01/16 12:00:10;;;;;;;159.25;38.40;;;;;;;;;;4998625;28;20041;-85
2022/01/16 12:02:42;;;;;;;139.20;35.83;;;;;;;;;;4997397;28;20027;-85
2022/01/16 12:05:08;;;;;;;174.35;40.33;;;;;;;;;;4998447;28;20022;-85
2022/01/16 12:07:45;;;;;;;165.10;39.55;;;;;;;;;;4997080;28;20025;-84
2022/01/16 12:10:11;;;;;;;129.38;35.70;;;;;;;;;;4983508;28;20227;-85
2022/01/16 12:13:03;;;;;;;140.80;36.05;;;;;;;;;;4976565;28;20026;-86
2022/01/16 12:18:47;;;;;;;124.78;34.30;;;;;;;;;;5000388;28;20084;-86
2022/01/16 12:21:32;;;;;;;128.05;35.47;;;;;;;;;;5006166;28;20520;-86
2022/01/16 12:24:08;;;;;;;126.43;34.88;;;;;;;;;;5005676;28;20254;-85
2022/01/16 12:26:39;;;;;;;138.75;37.15;;;;;;;;;;4997794;28;20022;-85
2022/01/16 12:29:05;;;;;;;138.07;36.33;;;;;;;;;;4995842;28;20026;-85
2022/01/16 12:31:42;;;;;;;127.82;37.97;;;;;;;;;;4996117;28;20461;-86
2022/01/16 12:34:34;;;;;;;131.18;36.65;;;;;;;;;;4997128;28;20034;-85
2022/01/16 12:37:00;;;;;;;130.55;33.30;;;;;;;;;;4999527;28;20057;-85
2022/01/16 12:39:30;;;;;;;123.07;34.08;;;;;;;;;;5000677;28;20026;-85
2022/01/16 12:42:07;;;;;;;124.20;35.55;;;;;;;;;;4998582;28;20041;-85
2022/01/16 12:44:35;;;;;;;122.32;34.78;;;;;;;;;;4998617;28;20036;-85
2022/01/16 12:47:04;;;;;;;123.32;35.40;;;;;;;;;;4996157;28;20181;-86
2022/01/16 12:49:30;;;;;;;132.88;36.25;;;;;;;;;;4996194;28;20058;-86
2022/01/16 12:51:57;;;;;;;127.32;34.50;;;;;;;;;;4998511;28;20023;-85
2022/01/16 12:54:25;;;;;;;120.25;33.13;;;;;;;;;;4995769;28;20479;-85
2022/01/16 12:56:52;;;;;;;115.35;34.72;;;;;;;;;;4994041;28;20026;-85
2022/01/16 12:59:18;;;;;;;115.53;33.38;;;;;;;;;;4994616;28;20026;-85
2022/01/16 13:01:44;;;;;;;101.45;31.70;;;;;;;;;;4994970;28;20510;-85
2022/01/16 13:04:18;;;;;;;100.03;30.50;;;;;;;;;;4994052;28;20033;-86
2022/01/16 13:06:44;;;;;;;116.93;31.88;;;;;;;;;;4993474;28;20033;-85
2022/01/16 13:09:11;;;;;;;96.05;32.47;;;;;;;;;;4993151;28;20030;-86
2022/01/16 13:11:40;;;;;;;126.03;32.60;;;;;;;;;;4994262;28;20397;-86
2022/01/16 13:14:07;;;;;;;121.07;36.30;;;;;;;;;;4994233;28;20105;-86
2022/01/16 13:16:35;;;;;;;106.88;30.83;;;;;;;;;;4994032;28;20494;-86
2022/01/16 13:19:13;;;;;;;107.95;32.35;;;;;;;;;;4993581;28;20070;-85
2022/01/16 13:21:47;;;;;;;66.97;22.50;;;;;;;;;;4994494;28;20688;-86
2022/01/16 13:24:25;;;;;;;104.93;29.92;;;;;;;;;;4994369;28;20042;-85
2022/01/16 13:26:51;;;;;;;90.47;29.25;;;;;;;;;;4993919;28;20030;-86
2022/01/16 13:29:19;;;;;;;113.75;32.00;;;;;;;;;;4994476;28;20102;-86
2022/01/16 13:31:45;;;;;;;97.75;28.27;;;;;;;;;;4994394;28;20497;-85
2022/01/16 13:34:13;;;;;;;109.18;33.65;;;;;;;;;;4994736;28;20042;-86
2022/01/16 13:36:49;;;;;;;97.93;30.40;;;;;;;;;;4993938;28;20034;-85
2022/01/16 13:39:15;;;;;;;101.80;30.42;;;;;;;;;;4994610;28;20030;-85
2022/01/16 13:41:44;;;;;;;98.82;30.30;;;;;;;;;;4993999;28;20030;-85
2022/01/16 13:44:28;;;;;;;106.68;30.73;;;;;;;;;;4993968;28;20022;-86
2022/01/16 13:46:58;;;;;;;109.45;30.15;;;;;;;;;;4992576;28;20106;-86
2022/01/16 13:49:24;;;;;;;102.60;30.55;;;;;;;;;;4992866;28;20198;-85
2022/01/16 13:51:59;;;;;;;117.65;32.20;;;;;;;;;;4992919;28;20103;-85
2022/01/16 13:54:32;;;;;;;108.57;31.75;;;;;;;;;;4991451;28;20084;-85
2022/01/16 13:57:02;;;;;;;110.10;33.33;;;;;;;;;;4992776;28;20030;-86
2022/01/16 13:59:28;;;;;;;111.15;32.53;;;;;;;;;;4998118;28;20076;-86
2022/01/16 14:01:56;;;;;;;126.60;33.63;;;;;;;;;;4991979;28;20026;-87
2022/01/16 14:04:24;;;;;;;122.22;34.05;;;;;;;;;;4995108;28;20467;-86
2022/01/16 14:06:56;;;;;;;120.15;35.33;;;;;;;;;;5001484;28;20019;-86
2022/01/16 14:09:22;;;;;;;121.63;35.13;;;;;;;;;;4998628;28;20034;-85
2022/01/16 14:11:50;;;;;;;120.18;33.72;;;;;;;;;;5007889;28;20066;-86
2022/01/16 14:14:18;;;;;;;115.18;35.60;;;;;;;;;;4994915;28;20033;-85
2022/01/16 14:17:14;;;;;;;120.53;32.78;;;;;;;;;;4995400;28;20022;-87
2022/01/16 14:22:20;;;;;;;108.38;33.53;;;;;;;;;;4995470;28;20117;-85
2022/01/16 14:24:51;;;;;;;125.57;34.67;;;;;;;;;;4994465;28;20310;-85
2022/01/16 14:27:17;;;;;;;;;;;;;;;;;;4996295;28;20678;-86
2022/01/16 14:29:46;;;;;;;103.88;32.30;;;;;;;;;;4997115;28;19952;-85
2022/01/16 14:32:12;;;;;;;130.80;35.65;;;;;;;;;;4996195;28;20023;-85
2022/01/16 14:34:39;;;;;;;126.65;36.70;;;;;;;;;;4994382;28;20129;-86
2022/01/16 14:37:07;;;;;;;131.65;36.80;;;;;;;;;;4993827;28;20031;-85
2022/01/16 14:39:33;;;;;;;137.38;36.95;;;;;;;;;;4996009;28;20022;-86
2022/01/16 14:41:59;;;;;;;125.22;35.80;;;;;;;;;;4996537;28;20035;-85
2022/01/16 14:44:26;;;;;;;127.50;36.20;;;;;;;;;;4995977;28;20026;-85
2022/01/16 14:46:53;;;;;;;121.97;35.83;;;;;;;;;;4994027;28;20030;-85
2022/01/16 14:49:19;;;;;;;141.75;41.00;;;;;;;;;;4996590;28;20430;-85
2022/01/16 14:51:45;;;;;;;384.88;131.50;;;;;;;;;;4996747;28;20027;-86
2022/01/16 14:54:11;;;;;;;138.93;41.38;;;;;;;;;;4995424;28;20490;-85
2022/01/16 14:56:38;;;;;;;126.07;41.15;;;;;;;;;;4996859;28;20030;-84
2022/01/16 14:59:04;;;;;;;121.60;36.00;;;;;;;;;;4997148;28;20486;-85
2022/01/16 15:01:30;;;;;;;123.28;36.08;;;;;;;;;;4996309;28;20173;-85
2022/01/16 15:03:57;;;;;;;124.55;38.67;;;;;;;;;;4996854;28;20320;-85
2022/01/16 15:06:24;;;;;;;111.22;36.40;;;;;;;;;;4996972;28;20168;-85
2022/01/16 15:08:52;;;;;;;140.85;36.75;;;;;;;;;;4998737;28;20049;-85
2022/01/16 15:11:21;;;;;;;117.25;35.90;;;;;;;;;;5000319;28;20025;-84
2022/01/16 15:13:52;;;;;;;126.93;37.55;;;;;;;;;;5003323;28;20066;-84
2022/01/16 15:16:26;;;;;;;121.13;35.53;;;;;;;;;;5002486;28;20564;-86
2022/01/16 15:18:55;;;;;;;118.03;35.28;;;;;;;;;;5002439;28;20034;-84
2022/01/16 15:21:38;;;;;;;125.35;36.10;;;;;;;;;;5000300;28;20030;-85
2022/01/16 15:24:12;;;;;;;114.07;35.22;;;;;;;;;;4999268;28;20035;-85
2022/01/16 15:26:40;;;;;;;102.93;34.92;;;;;;;;;;5000332;28;20030;-85
2022/01/16 15:29:08;;;;;;;106.60;34.95;;;;;;;;;;4999758;28;20471;-84
2022/01/16 15:31:34;;;;;;;114.13;34.28;;;;;;;;;;5002419;28;20021;-84
2022/01/16 15:37:17;;;;;;;99.10;31.65;;;;;;;;;;5019224;28;20050;-85
2022/01/16 15:39:49;;;;;;;98.65;30.42;;;;;;;;;;5018684;28;20045;-84
2022/01/16 15:42:18;;;;;;;107.53;33.85;;;;;;;;;;5019286;28;20021;-84
2022/01/16 15:44:55;;;;;;;113.47;33.10;;;;;;;;;;5018507;28;20026;-84
2022/01/16 15:47:27;;;;;;;104.07;34.22;;;;;;;;;;5018296;28;20054;-85
2022/01/16 15:49:53;;;;;;;92.43;32.67;;;;;;;;;;5016674;28;20041;-84
2022/01/16 15:52:24;;;;;;;98.45;32.35;;;;;;;;;;5018668;28;20018;-86
2022/01/16 15:54:57;;;;;;;97.57;31.83;;;;;;;;;;5018747;28;20054;-86
2022/01/16 16:00:37;;;;;;;82.53;29.90;;;;;;;;;;5017922;28;20025;-85
2022/01/16 16:03:03;;;;;;;103.40;31.52;;;;;;;;;;5017721;28;20018;-84
2022/01/16 16:06:02;;;;;;;101.60;33.15;;;;;;;;;;5018483;28;20054;-84
2022/01/16 16:08:34;;;;;;;96.68;32.42;;;;;;;;;;5015276;28;20035;-85